sensor_id;sensor_type;location;lat;lon;timestamp;P1;durP1;ratioP1;P2;durP2;ratioP2
78871;SDS011;68247;43.514;1.502;2023-04-03T00:00:05;9.65;;;4.32;;
78871;SDS011;68247;43.514;1.502;2023-04-03T00:02:32;9.13;;;3.87;;
78871;SDS011;68247;43.514;1.502;2023-04-03T00:04:57;12.32;;;4.57;;
78871;SDS011;68247;43.514;1.502;2023-04-03T00:07:23;11.10;;;4.10;;
78871;SDS011;68247;43.514;1.502;2023-04-03T00:09:48;6.57;;;4.47;;
78871;SDS011;68247;43.514;1.502;2023-04-03T00:12:13;9.20;;;4.35;;
78871;SDS011;68247;43.514;1.502;2023-04-03T00:14:40;7.20;;;3.80;;
78871;SDS011;68247;43.514;1.502;2023-04-03T00:17:05;6.57;;;3.97;;
78871;SDS011;68247;43.514;1.502;2023-04-03T00:19:31;8.20;;;4.40;;
78871;SDS011;68247;43.514;1.502;2023-04-03T00:21:56;16.90;;;4.60;;
78871;SDS011;68247;43.514;1.502;2023-04-03T00:24:22;6.65;;;4.05;;
78871;SDS011;68247;43.514;1.502;2023-04-03T00:26:47;10.20;;;4.60;;
78871;SDS011;68247;43.514;1.502;2023-04-03T00:29:13;13.00;;;4.70;;
78871;SDS011;68247;43.514;1.502;2023-04-03T00:31:38;10.40;;;4.87;;
78871;SDS011;68247;43.514;1.502;2023-04-03T00:34:04;11.48;;;4.82;;
78871;SDS011;68247;43.514;1.502;2023-04-03T00:36:29;7.73;;;4.00;;
78871;SDS011;68247;43.514;1.502;2023-04-03T00:38:55;12.30;;;5.10;;
78871;SDS011;68247;43.514;1.502;2023-04-03T00:41:20;10.75;;;4.38;;
78871;SDS011;68247;43.514;1.502;2023-04-03T00:43:46;11.97;;;4.53;;
78871;SDS011;68247;43.514;1.502;2023-04-03T00:46:11;8.87;;;4.40;;
78871;SDS011;68247;43.514;1.502;2023-04-03T00:51:03;9.07;;;4.68;;
78871;SDS011;68247;43.514;1.502;2023-04-03T00:53:31;10.93;;;4.70;;
78871;SDS011;68247;43.514;1.502;2023-04-03T00:56:02;10.65;;;4.93;;
78871;SDS011;68247;43.514;1.502;2023-04-03T00:58:37;11.63;;;4.50;;
78871;SDS011;68247;43.514;1.502;2023-04-03T01:01:08;11.25;;;4.90;;
78871;SDS011;68247;43.514;1.502;2023-04-03T01:03:36;8.02;;;4.32;;
78871;SDS011;68247;43.514;1.502;2023-04-03T01:06:01;9.50;;;4.50;;
78871;SDS011;68247;43.514;1.502;2023-04-03T01:08:27;9.88;;;4.60;;
78871;SDS011;68247;43.514;1.502;2023-04-03T01:10:52;10.83;;;5.17;;
78871;SDS011;68247;43.514;1.502;2023-04-03T01:13:26;10.70;;;4.50;;
78871;SDS011;68247;43.514;1.502;2023-04-03T01:15:53;9.65;;;4.60;;
78871;SDS011;68247;43.514;1.502;2023-04-03T01:18:19;8.55;;;4.22;;
78871;SDS011;68247;43.514;1.502;2023-04-03T01:26:03;10.38;;;4.72;;
78871;SDS011;68247;43.514;1.502;2023-04-03T01:28:30;6.80;;;4.20;;
78871;SDS011;68247;43.514;1.502;2023-04-03T01:33:41;8.23;;;4.30;;
78871;SDS011;68247;43.514;1.502;2023-04-03T01:36:07;8.60;;;4.10;;
78871;SDS011;68247;43.514;1.502;2023-04-03T01:38:33;11.30;;;4.85;;
78871;SDS011;68247;43.514;1.502;2023-04-03T01:40:58;11.17;;;5.03;;
78871;SDS011;68247;43.514;1.502;2023-04-03T01:43:24;8.18;;;4.32;;
78871;SDS011;68247;43.514;1.502;2023-04-03T01:45:50;9.90;;;4.97;;
78871;SDS011;68247;43.514;1.502;2023-04-03T01:48:17;12.00;;;4.88;;
78871;SDS011;68247;43.514;1.502;2023-04-03T01:50:42;10.30;;;5.27;;
78871;SDS011;68247;43.514;1.502;2023-04-03T01:53:08;9.43;;;5.80;;
78871;SDS011;68247;43.514;1.502;2023-04-03T01:55:34;12.73;;;5.20;;
78871;SDS011;68247;43.514;1.502;2023-04-03T01:57:59;11.97;;;5.07;;
78871;SDS011;68247;43.514;1.502;2023-04-03T02:00:25;10.23;;;5.17;;
78871;SDS011;68247;43.514;1.502;2023-04-03T02:02:51;9.88;;;4.93;;
78871;SDS011;68247;43.514;1.502;2023-04-03T02:05:16;10.67;;;5.40;;
78871;SDS011;68247;43.514;1.502;2023-04-03T02:07:42;19.83;;;5.50;;
78871;SDS011;68247;43.514;1.502;2023-04-03T02:10:07;14.65;;;5.95;;
78871;SDS011;68247;43.514;1.502;2023-04-03T02:12:33;16.40;;;6.40;;
78871;SDS011;68247;43.514;1.502;2023-04-03T02:14:58;12.87;;;6.07;;
78871;SDS011;68247;43.514;1.502;2023-04-03T02:17:24;12.38;;;5.63;;
78871;SDS011;68247;43.514;1.502;2023-04-03T02:19:49;13.57;;;5.97;;
78871;SDS011;68247;43.514;1.502;2023-04-03T02:22:15;15.47;;;6.37;;
78871;SDS011;68247;43.514;1.502;2023-04-03T02:24:40;13.70;;;6.57;;
78871;SDS011;68247;43.514;1.502;2023-04-03T02:27:06;13.57;;;6.30;;
78871;SDS011;68247;43.514;1.502;2023-04-03T02:29:32;15.00;;;6.80;;
78871;SDS011;68247;43.514;1.502;2023-04-03T02:31:57;19.67;;;7.43;;
78871;SDS011;68247;43.514;1.502;2023-04-03T02:34:23;17.40;;;7.10;;
78871;SDS011;68247;43.514;1.502;2023-04-03T02:36:48;16.20;;;7.17;;
78871;SDS011;68247;43.514;1.502;2023-04-03T02:39:14;13.88;;;7.63;;
78871;SDS011;68247;43.514;1.502;2023-04-03T02:41:40;18.67;;;7.67;;
78871;SDS011;68247;43.514;1.502;2023-04-03T02:44:05;17.27;;;7.93;;
78871;SDS011;68247;43.514;1.502;2023-04-03T02:46:32;20.07;;;8.00;;
78871;SDS011;68247;43.514;1.502;2023-04-03T02:48:57;17.50;;;8.13;;
78871;SDS011;68247;43.514;1.502;2023-04-03T02:51:23;18.77;;;8.73;;
78871;SDS011;68247;43.514;1.502;2023-04-03T02:53:49;15.90;;;7.13;;
78871;SDS011;68247;43.514;1.502;2023-04-03T02:56:15;19.15;;;7.50;;
78871;SDS011;68247;43.514;1.502;2023-04-03T02:58:40;18.23;;;8.27;;
78871;SDS011;68247;43.514;1.502;2023-04-03T03:01:06;18.90;;;7.83;;
78871;SDS011;68247;43.514;1.502;2023-04-03T03:03:31;16.97;;;8.03;;
78871;SDS011;68247;43.514;1.502;2023-04-03T03:06:00;18.00;;;7.85;;
78871;SDS011;68247;43.514;1.502;2023-04-03T03:08:36;18.17;;;7.50;;
78871;SDS011;68247;43.514;1.502;2023-04-03T03:11:01;18.77;;;8.13;;
78871;SDS011;68247;43.514;1.502;2023-04-03T03:13:27;17.10;;;7.43;;
78871;SDS011;68247;43.514;1.502;2023-04-03T03:15:53;17.40;;;8.20;;
78871;SDS011;68247;43.514;1.502;2023-04-03T03:18:18;17.00;;;7.50;;
78871;SDS011;68247;43.514;1.502;2023-04-03T03:20:43;15.93;;;7.60;;
78871;SDS011;68247;43.514;1.502;2023-04-03T03:23:09;18.70;;;7.82;;
78871;SDS011;68247;43.514;1.502;2023-04-03T03:25:38;17.27;;;7.70;;
78871;SDS011;68247;43.514;1.502;2023-04-03T03:28:05;14.65;;;7.70;;
78871;SDS011;68247;43.514;1.502;2023-04-03T03:30:30;15.33;;;7.30;;
78871;SDS011;68247;43.514;1.502;2023-04-03T03:32:56;26.08;;;7.65;;
78871;SDS011;68247;43.514;1.502;2023-04-03T03:35:21;17.23;;;7.57;;
78871;SDS011;68247;43.514;1.502;2023-04-03T03:37:46;16.57;;;8.23;;
78871;SDS011;68247;43.514;1.502;2023-04-03T03:40:12;18.60;;;8.60;;
78871;SDS011;68247;43.514;1.502;2023-04-03T03:42:38;15.90;;;7.78;;
78871;SDS011;68247;43.514;1.502;2023-04-03T03:45:03;15.87;;;6.80;;
78871;SDS011;68247;43.514;1.502;2023-04-03T03:47:30;15.98;;;6.90;;
78871;SDS011;68247;43.514;1.502;2023-04-03T03:49:55;13.98;;;6.20;;
78871;SDS011;68247;43.514;1.502;2023-04-03T03:52:21;15.53;;;7.03;;
78871;SDS011;68247;43.514;1.502;2023-04-03T03:54:46;19.03;;;8.13;;
78871;SDS011;68247;43.514;1.502;2023-04-03T03:57:12;15.02;;;7.15;;
78871;SDS011;68247;43.514;1.502;2023-04-03T03:59:38;15.20;;;7.90;;
78871;SDS011;68247;43.514;1.502;2023-04-03T04:02:05;17.67;;;7.15;;
78871;SDS011;68247;43.514;1.502;2023-04-03T04:04:31;17.97;;;7.03;;
78871;SDS011;68247;43.514;1.502;2023-04-03T04:06:56;15.50;;;7.00;;
78871;SDS011;68247;43.514;1.502;2023-04-03T04:09:22;13.27;;;6.43;;
78871;SDS011;68247;43.514;1.502;2023-04-03T04:11:47;15.20;;;6.50;;
78871;SDS011;68247;43.514;1.502;2023-04-03T04:14:12;11.80;;;6.47;;
78871;SDS011;68247;43.514;1.502;2023-04-03T04:16:38;14.50;;;6.50;;
78871;SDS011;68247;43.514;1.502;2023-04-03T04:19:04;13.60;;;6.40;;
78871;SDS011;68247;43.514;1.502;2023-04-03T04:21:29;14.83;;;6.87;;
78871;SDS011;68247;43.514;1.502;2023-04-03T04:23:55;14.13;;;7.57;;
78871;SDS011;68247;43.514;1.502;2023-04-03T04:26:20;15.40;;;6.87;;
78871;SDS011;68247;43.514;1.502;2023-04-03T04:28:46;15.43;;;7.13;;
78871;SDS011;68247;43.514;1.502;2023-04-03T04:31:11;14.10;;;7.43;;
78871;SDS011;68247;43.514;1.502;2023-04-03T04:33:37;17.02;;;7.65;;
78871;SDS011;68247;43.514;1.502;2023-04-03T04:36:02;16.50;;;7.30;;
78871;SDS011;68247;43.514;1.502;2023-04-03T04:38:28;12.73;;;6.80;;
78871;SDS011;68247;43.514;1.502;2023-04-03T04:40:53;11.52;;;6.45;;
78871;SDS011;68247;43.514;1.502;2023-04-03T04:43:18;14.57;;;7.27;;
78871;SDS011;68247;43.514;1.502;2023-04-03T04:45:44;16.30;;;8.47;;
78871;SDS011;68247;43.514;1.502;2023-04-03T04:48:10;12.80;;;7.22;;
78871;SDS011;68247;43.514;1.502;2023-04-03T04:50:35;14.53;;;7.37;;
78871;SDS011;68247;43.514;1.502;2023-04-03T04:53:00;12.43;;;7.03;;
78871;SDS011;68247;43.514;1.502;2023-04-03T04:55:26;12.90;;;7.23;;
78871;SDS011;68247;43.514;1.502;2023-04-03T04:57:51;15.83;;;7.80;;
78871;SDS011;68247;43.514;1.502;2023-04-03T05:00:17;15.68;;;7.35;;
78871;SDS011;68247;43.514;1.502;2023-04-03T05:02:43;16.40;;;7.57;;
78871;SDS011;68247;43.514;1.502;2023-04-03T05:05:08;13.85;;;7.25;;
78871;SDS011;68247;43.514;1.502;2023-04-03T05:07:34;14.37;;;7.00;;
78871;SDS011;68247;43.514;1.502;2023-04-03T05:10:00;13.07;;;6.15;;
78871;SDS011;68247;43.514;1.502;2023-04-03T05:12:27;14.13;;;7.10;;
78871;SDS011;68247;43.514;1.502;2023-04-03T05:14:53;14.30;;;6.57;;
78871;SDS011;68247;43.514;1.502;2023-04-03T05:17:18;13.43;;;6.83;;
78871;SDS011;68247;43.514;1.502;2023-04-03T05:19:43;14.20;;;7.35;;
78871;SDS011;68247;43.514;1.502;2023-04-03T05:22:09;16.23;;;6.73;;
78871;SDS011;68247;43.514;1.502;2023-04-03T05:24:35;16.27;;;7.33;;
78871;SDS011;68247;43.514;1.502;2023-04-03T05:27:00;15.02;;;6.63;;
78871;SDS011;68247;43.514;1.502;2023-04-03T05:29:25;10.93;;;6.47;;
78871;SDS011;68247;43.514;1.502;2023-04-03T05:31:51;15.73;;;7.80;;
78871;SDS011;68247;43.514;1.502;2023-04-03T05:34:17;15.57;;;8.10;;
78871;SDS011;68247;43.514;1.502;2023-04-03T05:36:42;13.40;;;6.93;;
78871;SDS011;68247;43.514;1.502;2023-04-03T05:39:08;14.73;;;7.53;;
78871;SDS011;68247;43.514;1.502;2023-04-03T05:41:33;13.02;;;7.30;;
78871;SDS011;68247;43.514;1.502;2023-04-03T05:43:59;16.57;;;8.17;;
78871;SDS011;68247;43.514;1.502;2023-04-03T05:46:24;15.65;;;7.60;;
78871;SDS011;68247;43.514;1.502;2023-04-03T05:48:51;13.30;;;7.37;;
78871;SDS011;68247;43.514;1.502;2023-04-03T05:51:21;13.38;;;7.30;;
78871;SDS011;68247;43.514;1.502;2023-04-03T05:53:52;14.67;;;7.10;;
78871;SDS011;68247;43.514;1.502;2023-04-03T05:56:22;14.32;;;7.03;;
78871;SDS011;68247;43.514;1.502;2023-04-03T05:58:47;13.60;;;7.50;;
78871;SDS011;68247;43.514;1.502;2023-04-03T06:01:12;14.57;;;7.35;;
78871;SDS011;68247;43.514;1.502;2023-04-03T06:03:38;16.27;;;7.80;;
78871;SDS011;68247;43.514;1.502;2023-04-03T06:06:05;13.23;;;7.78;;
78871;SDS011;68247;43.514;1.502;2023-04-03T06:08:30;14.97;;;7.60;;
78871;SDS011;68247;43.514;1.502;2023-04-03T06:10:56;14.55;;;7.43;;
78871;SDS011;68247;43.514;1.502;2023-04-03T06:13:22;15.97;;;8.13;;
78871;SDS011;68247;43.514;1.502;2023-04-03T06:15:47;22.27;;;8.55;;
78871;SDS011;68247;43.514;1.502;2023-04-03T06:18:13;13.47;;;7.43;;
78871;SDS011;68247;43.514;1.502;2023-04-03T06:20:39;14.02;;;7.93;;
78871;SDS011;68247;43.514;1.502;2023-04-03T06:23:04;15.53;;;7.63;;
78871;SDS011;68247;43.514;1.502;2023-04-03T06:25:30;15.63;;;7.82;;
78871;SDS011;68247;43.514;1.502;2023-04-03T06:27:56;12.43;;;7.17;;
78871;SDS011;68247;43.514;1.502;2023-04-03T06:30:22;13.13;;;7.85;;
78871;SDS011;68247;43.514;1.502;2023-04-03T06:32:47;15.70;;;7.53;;
78871;SDS011;68247;43.514;1.502;2023-04-03T06:35:13;17.23;;;7.87;;
78871;SDS011;68247;43.514;1.502;2023-04-03T06:37:38;13.60;;;7.85;;
78871;SDS011;68247;43.514;1.502;2023-04-03T06:40:04;14.97;;;7.87;;
78871;SDS011;68247;43.514;1.502;2023-04-03T06:42:30;16.05;;;7.55;;
78871;SDS011;68247;43.514;1.502;2023-04-03T06:44:56;15.77;;;7.33;;
78871;SDS011;68247;43.514;1.502;2023-04-03T06:47:22;12.88;;;7.43;;
78871;SDS011;68247;43.514;1.502;2023-04-03T06:49:48;15.47;;;7.27;;
78871;SDS011;68247;43.514;1.502;2023-04-03T06:52:13;16.30;;;7.80;;
78871;SDS011;68247;43.514;1.502;2023-04-03T06:54:39;15.90;;;8.13;;
78871;SDS011;68247;43.514;1.502;2023-04-03T06:57:05;12.67;;;7.47;;
78871;SDS011;68247;43.514;1.502;2023-04-03T06:59:31;14.32;;;7.60;;
78871;SDS011;68247;43.514;1.502;2023-04-03T07:01:57;16.63;;;7.70;;
78871;SDS011;68247;43.514;1.502;2023-04-03T07:04:23;12.13;;;7.30;;
78871;SDS011;68247;43.514;1.502;2023-04-03T07:06:49;12.63;;;6.75;;
78871;SDS011;68247;43.514;1.502;2023-04-03T07:09:15;14.68;;;6.95;;
78871;SDS011;68247;43.514;1.502;2023-04-03T07:11:41;13.23;;;6.50;;
78871;SDS011;68247;43.514;1.502;2023-04-03T07:14:08;10.52;;;6.38;;
78871;SDS011;68247;43.514;1.502;2023-04-03T07:16:34;12.90;;;6.37;;
78871;SDS011;68247;43.514;1.502;2023-04-03T07:19:00;12.63;;;6.40;;
78871;SDS011;68247;43.514;1.502;2023-04-03T07:21:26;12.77;;;6.47;;
78871;SDS011;68247;43.514;1.502;2023-04-03T07:23:53;12.98;;;7.07;;
78871;SDS011;68247;43.514;1.502;2023-04-03T07:26:18;12.73;;;6.43;;
78871;SDS011;68247;43.514;1.502;2023-04-03T07:28:46;14.93;;;6.50;;
78871;SDS011;68247;43.514;1.502;2023-04-03T07:31:13;15.13;;;6.75;;
78871;SDS011;68247;43.514;1.502;2023-04-03T07:33:40;15.93;;;7.05;;
78871;SDS011;68247;43.514;1.502;2023-04-03T07:36:06;9.33;;;5.50;;
78871;SDS011;68247;43.514;1.502;2023-04-03T07:38:32;10.07;;;5.80;;
78871;SDS011;68247;43.514;1.502;2023-04-03T07:40:59;10.30;;;5.53;;
78871;SDS011;68247;43.514;1.502;2023-04-03T07:43:25;12.70;;;5.80;;
78871;SDS011;68247;43.514;1.502;2023-04-03T07:45:52;10.87;;;6.00;;
78871;SDS011;68247;43.514;1.502;2023-04-03T07:48:23;12.02;;;6.38;;
78871;SDS011;68247;43.514;1.502;2023-04-03T07:50:49;11.55;;;5.70;;
78871;SDS011;68247;43.514;1.502;2023-04-03T07:53:15;11.53;;;6.03;;
78871;SDS011;68247;43.514;1.502;2023-04-03T07:55:41;12.10;;;6.00;;
78871;SDS011;68247;43.514;1.502;2023-04-03T07:58:10;11.43;;;5.60;;
78871;SDS011;68247;43.514;1.502;2023-04-03T08:00:36;10.65;;;5.43;;
78871;SDS011;68247;43.514;1.502;2023-04-03T08:03:02;10.87;;;5.07;;
78871;SDS011;68247;43.514;1.502;2023-04-03T08:05:28;12.18;;;5.32;;
78871;SDS011;68247;43.514;1.502;2023-04-03T08:07:53;12.53;;;5.57;;
78871;SDS011;68247;43.514;1.502;2023-04-03T08:10:19;18.85;;;6.70;;
78871;SDS011;68247;43.514;1.502;2023-04-03T08:12:48;12.80;;;4.50;;
78871;SDS011;68247;43.514;1.502;2023-04-03T08:15:13;11.32;;;5.63;;
78871;SDS011;68247;43.514;1.502;2023-04-03T08:17:39;8.70;;;5.10;;
78871;SDS011;68247;43.514;1.502;2023-04-03T08:20:05;8.98;;;3.90;;
78871;SDS011;68247;43.514;1.502;2023-04-03T08:22:32;9.50;;;4.70;;
78871;SDS011;68247;43.514;1.502;2023-04-03T08:24:58;7.30;;;3.88;;
78871;SDS011;68247;43.514;1.502;2023-04-03T08:27:24;9.13;;;4.90;;
78871;SDS011;68247;43.514;1.502;2023-04-03T08:29:51;9.90;;;4.80;;
78871;SDS011;68247;43.514;1.502;2023-04-03T08:32:17;12.50;;;5.47;;
78871;SDS011;68247;43.514;1.502;2023-04-03T08:34:43;11.30;;;4.90;;
78871;SDS011;68247;43.514;1.502;2023-04-03T08:37:08;8.33;;;4.63;;
78871;SDS011;68247;43.514;1.502;2023-04-03T08:39:33;7.60;;;4.30;;
78871;SDS011;68247;43.514;1.502;2023-04-03T08:42:02;7.78;;;4.70;;
78871;SDS011;68247;43.514;1.502;2023-04-03T08:50:00;8.88;;;4.30;;
78871;SDS011;68247;43.514;1.502;2023-04-03T08:58:04;11.05;;;4.18;;
78871;SDS011;68247;43.514;1.502;2023-04-03T09:00:40;6.70;;;3.28;;
78871;SDS011;68247;43.514;1.502;2023-04-03T09:03:11;8.10;;;4.55;;
78871;SDS011;68247;43.514;1.502;2023-04-03T09:05:43;8.73;;;3.85;;
78871;SDS011;68247;43.514;1.502;2023-04-03T09:08:19;6.17;;;4.10;;
78871;SDS011;68247;43.514;1.502;2023-04-03T09:10:46;10.18;;;4.22;;
78871;SDS011;68247;43.514;1.502;2023-04-03T09:15:50;7.07;;;3.97;;
78871;SDS011;68247;43.514;1.502;2023-04-03T09:20:56;6.67;;;3.53;;
78871;SDS011;68247;43.514;1.502;2023-04-03T09:29:00;7.40;;;3.97;;
78871;SDS011;68247;43.514;1.502;2023-04-03T09:31:35;10.50;;;3.70;;
78871;SDS011;68247;43.514;1.502;2023-04-03T09:34:05;7.65;;;4.10;;
78871;SDS011;68247;43.514;1.502;2023-04-03T09:37:22;10.70;;;4.40;;
78871;SDS011;68247;43.514;1.502;2023-04-03T09:39:29;7.88;;;3.55;;
78871;SDS011;68247;43.514;1.502;2023-04-03T09:44:33;7.43;;;3.28;;
78871;SDS011;68247;43.514;1.502;2023-04-03T09:47:18;6.07;;;3.75;;
78871;SDS011;68247;43.514;1.502;2023-04-03T09:49:47;7.05;;;3.38;;
78871;SDS011;68247;43.514;1.502;2023-04-03T09:52:33;5.97;;;3.23;;
78871;SDS011;68247;43.514;1.502;2023-04-03T09:55:05;6.70;;;3.45;;
78871;SDS011;68247;43.514;1.502;2023-04-03T09:57:41;10.18;;;4.70;;
78871;SDS011;68247;43.514;1.502;2023-04-03T10:00:10;8.63;;;3.30;;
78871;SDS011;68247;43.514;1.502;2023-04-03T10:02:52;6.55;;;2.90;;
78871;SDS011;68247;43.514;1.502;2023-04-03T10:05:28;6.10;;;2.72;;
78871;SDS011;68247;43.514;1.502;2023-04-03T10:10:39;5.00;;;2.40;;
78871;SDS011;68247;43.514;1.502;2023-04-03T10:15:46;5.40;;;2.65;;
78871;SDS011;68247;43.514;1.502;2023-04-03T10:21:19;6.03;;;2.88;;
78871;SDS011;68247;43.514;1.502;2023-04-03T10:24:03;5.10;;;2.63;;
78871;SDS011;68247;43.514;1.502;2023-04-03T10:35:44;6.68;;;2.63;;
78871;SDS011;68247;43.514;1.502;2023-04-03T10:38:19;3.97;;;2.27;;
78871;SDS011;68247;43.514;1.502;2023-04-03T10:41:15;5.38;;;3.00;;
78871;SDS011;68247;43.514;1.502;2023-04-03T10:46:49;4.55;;;2.42;;
78871;SDS011;68247;43.514;1.502;2023-04-03T10:52:20;4.93;;;2.40;;
78871;SDS011;68247;43.514;1.502;2023-04-03T10:54:55;4.75;;;2.28;;
78871;SDS011;68247;43.514;1.502;2023-04-03T10:57:23;4.75;;;2.45;;
78871;SDS011;68247;43.514;1.502;2023-04-03T10:59:51;4.95;;;2.55;;
78871;SDS011;68247;43.514;1.502;2023-04-03T11:04:57;4.37;;;2.30;;
78871;SDS011;68247;43.514;1.502;2023-04-03T11:07:32;3.83;;;2.03;;
78871;SDS011;68247;43.514;1.502;2023-04-03T11:10:02;4.28;;;2.10;;
78871;SDS011;68247;43.514;1.502;2023-04-03T11:15:29;5.05;;;1.80;;
78871;SDS011;68247;43.514;1.502;2023-04-03T11:18:01;5.70;;;2.20;;
78871;SDS011;68247;43.514;1.502;2023-04-03T11:20:59;4.30;;;2.20;;
78871;SDS011;68247;43.514;1.502;2023-04-03T11:23:30;4.97;;;2.50;;
78871;SDS011;68247;43.514;1.502;2023-04-03T11:26:13;5.75;;;2.65;;
78871;SDS011;68247;43.514;1.502;2023-04-03T11:28:40;5.82;;;3.10;;
78871;SDS011;68247;43.514;1.502;2023-04-03T11:34:06;5.30;;;2.70;;
78871;SDS011;68247;43.514;1.502;2023-04-03T11:36:42;5.95;;;2.70;;
78871;SDS011;68247;43.514;1.502;2023-04-03T11:39:32;5.82;;;2.63;;
78871;SDS011;68247;43.514;1.502;2023-04-03T11:42:12;4.40;;;2.30;;
78871;SDS011;68247;43.514;1.502;2023-04-03T11:44:38;8.13;;;2.70;;
78871;SDS011;68247;43.514;1.502;2023-04-03T11:47:04;4.95;;;2.63;;
78871;SDS011;68247;43.514;1.502;2023-04-03T11:49:52;5.47;;;2.20;;
78871;SDS011;68247;43.514;1.502;2023-04-03T12:16:22;6.27;;;2.90;;
78871;SDS011;68247;43.514;1.502;2023-04-03T12:21:22;5.90;;;2.45;;
78871;SDS011;68247;43.514;1.502;2023-04-03T12:24:00;5.63;;;2.65;;
78871;SDS011;68247;43.514;1.502;2023-04-03T12:26:30;6.45;;;3.25;;
78871;SDS011;68247;43.514;1.502;2023-04-03T12:29:01;7.27;;;2.60;;
78871;SDS011;68247;43.514;1.502;2023-04-03T12:31:37;4.65;;;2.22;;
78871;SDS011;68247;43.514;1.502;2023-04-03T12:34:17;6.15;;;2.40;;
78871;SDS011;68247;43.514;1.502;2023-04-03T12:36:52;5.88;;;2.60;;
78871;SDS011;68247;43.514;1.502;2023-04-03T12:42:33;4.77;;;2.50;;
78871;SDS011;68247;43.514;1.502;2023-04-03T12:47:29;5.38;;;2.60;;
78871;SDS011;68247;43.514;1.502;2023-04-03T12:49:58;7.03;;;2.80;;
78871;SDS011;68247;43.514;1.502;2023-04-03T12:52:41;6.13;;;2.13;;
78871;SDS011;68247;43.514;1.502;2023-04-03T12:55:15;5.07;;;2.33;;
78871;SDS011;68247;43.514;1.502;2023-04-03T12:57:43;6.28;;;2.42;;
78871;SDS011;68247;43.514;1.502;2023-04-03T13:00:18;5.70;;;2.20;;
78871;SDS011;68247;43.514;1.502;2023-04-03T13:02:52;4.97;;;2.10;;
78871;SDS011;68247;43.514;1.502;2023-04-03T13:05:18;4.18;;;2.20;;
78871;SDS011;68247;43.514;1.502;2023-04-03T13:07:48;4.45;;;1.90;;
78871;SDS011;68247;43.514;1.502;2023-04-03T13:10:16;4.03;;;1.60;;
78871;SDS011;68247;43.514;1.502;2023-04-03T13:13:07;4.32;;;2.40;;
78871;SDS011;68247;43.514;1.502;2023-04-03T13:15:44;3.67;;;2.15;;
78871;SDS011;68247;43.514;1.502;2023-04-03T13:18:30;4.97;;;1.80;;
78871;SDS011;68247;43.514;1.502;2023-04-03T13:23:40;3.77;;;1.83;;
78871;SDS011;68247;43.514;1.502;2023-04-03T13:26:08;6.60;;;2.38;;
78871;SDS011;68247;43.514;1.502;2023-04-03T13:28:34;5.22;;;2.67;;
78871;SDS011;68247;43.514;1.502;2023-04-03T13:33:29;3.90;;;1.70;;
78871;SDS011;68247;43.514;1.502;2023-04-03T13:36:02;4.32;;;1.98;;
78871;SDS011;68247;43.514;1.502;2023-04-03T13:38:29;4.90;;;1.90;;
78871;SDS011;68247;43.514;1.502;2023-04-03T13:40:59;3.80;;;2.00;;
78871;SDS011;68247;43.514;1.502;2023-04-03T13:43:28;3.53;;;2.20;;
78871;SDS011;68247;43.514;1.502;2023-04-03T13:48:34;3.38;;;1.88;;
78871;SDS011;68247;43.514;1.502;2023-04-03T13:51:03;4.38;;;2.03;;
78871;SDS011;68247;43.514;1.502;2023-04-03T13:53:43;5.65;;;2.00;;
78871;SDS011;68247;43.514;1.502;2023-04-03T14:04:24;3.08;;;1.73;;
78871;SDS011;68247;43.514;1.502;2023-04-03T14:06:52;5.13;;;1.95;;
78871;SDS011;68247;43.514;1.502;2023-04-03T14:09:18;5.00;;;2.50;;
78871;SDS011;68247;43.514;1.502;2023-04-03T14:11:44;4.25;;;2.10;;
78871;SDS011;68247;43.514;1.502;2023-04-03T14:14:14;5.15;;;2.40;;
78871;SDS011;68247;43.514;1.502;2023-04-03T14:16:42;6.07;;;2.57;;
78871;SDS011;68247;43.514;1.502;2023-04-03T14:19:24;5.63;;;2.33;;
78871;SDS011;68247;43.514;1.502;2023-04-03T14:21:53;4.57;;;2.22;;
78871;SDS011;68247;43.514;1.502;2023-04-03T14:24:19;4.18;;;1.80;;
78871;SDS011;68247;43.514;1.502;2023-04-03T14:26:46;5.65;;;2.45;;
78871;SDS011;68247;43.514;1.502;2023-04-03T14:29:12;6.10;;;2.20;;
78871;SDS011;68247;43.514;1.502;2023-04-03T14:31:39;4.72;;;2.10;;
78871;SDS011;68247;43.514;1.502;2023-04-03T14:34:06;6.85;;;2.20;;
78871;SDS011;68247;43.514;1.502;2023-04-03T14:36:31;3.83;;;1.90;;
78871;SDS011;68247;43.514;1.502;2023-04-03T14:38:57;4.15;;;1.60;;
78871;SDS011;68247;43.514;1.502;2023-04-03T14:41:24;5.07;;;1.73;;
78871;SDS011;68247;43.514;1.502;2023-04-03T14:43:50;6.97;;;2.33;;
78871;SDS011;68247;43.514;1.502;2023-04-03T14:48:51;5.33;;;1.90;;
78871;SDS011;68247;43.514;1.502;2023-04-03T14:51:16;4.75;;;2.00;;
78871;SDS011;68247;43.514;1.502;2023-04-03T14:53:42;7.03;;;2.60;;
78871;SDS011;68247;43.514;1.502;2023-04-03T14:56:14;4.30;;;2.03;;
78871;SDS011;68247;43.514;1.502;2023-04-03T14:58:42;4.40;;;2.10;;
78871;SDS011;68247;43.514;1.502;2023-04-03T15:01:09;5.23;;;2.20;;
78871;SDS011;68247;43.514;1.502;2023-04-03T15:03:35;5.43;;;2.10;;
78871;SDS011;68247;43.514;1.502;2023-04-03T15:06:01;5.00;;;2.00;;
78871;SDS011;68247;43.514;1.502;2023-04-03T15:08:27;6.25;;;2.55;;
78871;SDS011;68247;43.514;1.502;2023-04-03T15:10:54;7.47;;;2.23;;
78871;SDS011;68247;43.514;1.502;2023-04-03T15:13:23;4.13;;;2.28;;
78871;SDS011;68247;43.514;1.502;2023-04-03T15:15:49;6.10;;;2.10;;
78871;SDS011;68247;43.514;1.502;2023-04-03T15:18:22;5.20;;;1.88;;
78871;SDS011;68247;43.514;1.502;2023-04-03T15:20:53;5.75;;;2.90;;
78871;SDS011;68247;43.514;1.502;2023-04-03T15:23:19;4.43;;;2.10;;
78871;SDS011;68247;43.514;1.502;2023-04-03T15:25:46;8.25;;;2.35;;
78871;SDS011;68247;43.514;1.502;2023-04-03T15:28:22;7.18;;;2.10;;
78871;SDS011;68247;43.514;1.502;2023-04-03T15:30:51;5.22;;;1.90;;
78871;SDS011;68247;43.514;1.502;2023-04-03T15:33:17;5.17;;;2.20;;
78871;SDS011;68247;43.514;1.502;2023-04-03T15:35:42;5.07;;;2.10;;
78871;SDS011;68247;43.514;1.502;2023-04-03T15:38:08;4.50;;;2.10;;
78871;SDS011;68247;43.514;1.502;2023-04-03T15:40:34;4.83;;;1.80;;
78871;SDS011;68247;43.514;1.502;2023-04-03T15:43:00;5.95;;;1.92;;
78871;SDS011;68247;43.514;1.502;2023-04-03T15:45:27;5.33;;;2.63;;
78871;SDS011;68247;43.514;1.502;2023-04-03T15:47:54;4.15;;;2.13;;
78871;SDS011;68247;43.514;1.502;2023-04-03T15:50:20;7.40;;;2.50;;
78871;SDS011;68247;43.514;1.502;2023-04-03T15:52:49;9.68;;;2.28;;
78871;SDS011;68247;43.514;1.502;2023-04-03T15:55:20;6.60;;;2.10;;
78871;SDS011;68247;43.514;1.502;2023-04-03T15:57:46;4.05;;;2.00;;
78871;SDS011;68247;43.514;1.502;2023-04-03T16:00:12;4.87;;;2.30;;
78871;SDS011;68247;43.514;1.502;2023-04-03T16:02:38;5.90;;;2.05;;
78871;SDS011;68247;43.514;1.502;2023-04-03T16:05:03;7.30;;;3.97;;
78871;SDS011;68247;43.514;1.502;2023-04-03T16:07:29;22.35;;;13.05;;
78871;SDS011;68247;43.514;1.502;2023-04-03T16:09:54;5.73;;;2.70;;
78871;SDS011;68247;43.514;1.502;2023-04-03T16:12:20;4.13;;;2.00;;
78871;SDS011;68247;43.514;1.502;2023-04-03T16:14:45;4.93;;;2.10;;
78871;SDS011;68247;43.514;1.502;2023-04-03T16:17:11;7.03;;;2.70;;
78871;SDS011;68247;43.514;1.502;2023-04-03T16:19:36;5.57;;;2.30;;
78871;SDS011;68247;43.514;1.502;2023-04-03T16:22:02;5.93;;;2.50;;
78871;SDS011;68247;43.514;1.502;2023-04-03T16:24:27;6.80;;;2.80;;
78871;SDS011;68247;43.514;1.502;2023-04-03T16:26:53;4.72;;;1.98;;
78871;SDS011;68247;43.514;1.502;2023-04-03T16:29:18;4.83;;;1.90;;
78871;SDS011;68247;43.514;1.502;2023-04-03T16:31:43;5.13;;;2.20;;
78871;SDS011;68247;43.514;1.502;2023-04-03T16:34:09;6.27;;;2.63;;
78871;SDS011;68247;43.514;1.502;2023-04-03T16:36:34;5.60;;;2.53;;
78871;SDS011;68247;43.514;1.502;2023-04-03T16:39:00;3.73;;;2.00;;
78871;SDS011;68247;43.514;1.502;2023-04-03T16:41:25;5.63;;;2.43;;